Time;durP1;ratioP1;P1;durP2;ratioP2;P2;SDS_P1;SDS_P2;PMS_P1;PMS_P2;Temp;Humidity;BMP_temperature;BMP_pressure;BME280_temperature;BME280_humidity;BME280_pressure;Samples;Min_cycle;Max_cycle;Signal;HPM_P1;HPM_P2
2023/08/19 00:04:52;;;;;;;6.68;3.78;;;;;;;;;;10480834;28;20482;-76
2023/08/19 00:09:55;;;;;;;6.68;3.83;;;;;;;;;;10484712;28;20551;-77
2023/08/19 00:14:59;;;;;;;6.28;3.67;;;;;;;;;;10490021;28;20174;-78
2023/08/19 00:20:05;;;;;;;4.95;3.28;;;;;;;;;;10485180;28;20109;-77
2023/08/19 00:25:09;;;;;;;7.18;3.58;;;;;;;;;;10483887;28;20044;-76
2023/08/19 00:30:11;;;;;;;;;;;;;;;;;;10483337;28;20517;-77
2023/08/19 00:35:15;;;;;;;5.45;3.17;;;;;;;;;;10488575;28;19968;-76
2023/08/19 00:40:18;;;;;;;6.07;3.22;;;;;;;;;;10484027;28;20502;-77
2023/08/19 00:45:21;;;;;;;6.55;3.60;;;;;;;;;;10491311;28;20481;-75
2023/08/19 00:50:26;;;;;;;6.47;3.83;;;;;;;;;;10487612;28;20058;-76
2023/08/19 00:55:29;;;;;;;5.10;3.08;;;;;;;;;;10480836;28;20413;-76
2023/08/19 01:00:32;;;;;;;6.63;3.60;;;;;;;;;;10481212;28;20116;-76
2023/08/19 01:05:41;;;;;;;6.30;3.50;;;;;;;;;;10484355;28;20044;-76
2023/08/19 01:10:45;;;;;;;6.72;3.25;;;;;;;;;;10483708;28;20497;-76
2023/08/19 01:15:51;;;;;;;6.50;3.28;;;;;;;;;;10481741;28;20058;-76
2023/08/19 01:20:55;;;;;;;7.88;3.65;;;;;;;;;;10486554;28;20033;-75
2023/08/19 01:26:00;;;;;;;6.70;3.97;;;;;;;;;;10492397;28;20567;-78
2023/08/19 01:31:03;;;;;;;7.63;3.67;;;;;;;;;;10482518;28;20033;-77
2023/08/19 01:36:17;;;;;;;6.38;3.50;;;;;;;;;;10477876;28;20037;-76
2023/08/19 01:41:23;;;;;;;8.15;3.40;;;;;;;;;;10481394;28;20047;-75
2023/08/19 01:46:26;;;;;;;6.32;3.25;;;;;;;;;;10483702;28;20040;-77
2023/08/19 01:51:30;;;;;;;7.00;3.60;;;;;;;;;;10478426;28;20045;-76
2023/08/19 01:56:34;;;;;;;7.68;3.83;;;;;;;;;;10485083;28;20382;-77
2023/08/19 02:01:37;;;;;;;7.50;3.20;;;;;;;;;;10483349;28;20458;-76
2023/08/19 02:06:40;;;;;;;8.15;4.10;;;;;;;;;;10484319;28;20098;-75
2023/08/19 02:11:44;;;;;;;7.65;4.05;;;;;;;;;;10481334;28;20465;-77
2023/08/19 02:16:47;;;;;;;6.60;3.67;;;;;;;;;;10483004;28;20056;-76
2023/08/19 02:21:49;;;;;;;10.47;4.00;;;;;;;;;;10481119;28;20119;-76
2023/08/19 02:26:54;;;;;;;7.40;4.27;;;;;;;;;;10475163;28;20131;-75
2023/08/19 02:31:56;;;;;;;7.50;3.65;;;;;;;;;;10482822;28;20376;-78
2023/08/19 02:36:59;;;;;;;9.40;4.00;;;;;;;;;;10480075;28;20409;-76
2023/08/19 02:42:03;;;;;;;7.30;3.87;;;;;;;;;;10481530;28;20781;-76
2023/08/19 02:47:07;;;;;;;6.75;3.90;;;;;;;;;;10478975;28;20496;-76
2023/08/19 02:52:10;;;;;;;9.10;4.07;;;;;;;;;;10478782;28;20459;-76
2023/08/19 02:57:14;;;;;;;7.15;3.83;;;;;;;;;;10471686;28;20029;-75
2023/08/19 03:02:17;;;;;;;6.25;3.70;;;;;;;;;;10478085;28;20048;-77
2023/08/19 03:07:19;;;;;;;7.27;3.70;;;;;;;;;;10480078;28;20044;-77
2023/08/19 03:12:23;;;;;;;9.90;3.73;;;;;;;;;;10487672;28;20997;-78
2023/08/19 03:17:26;;;;;;;7.45;4.10;;;;;;;;;;10480770;28;20560;-77
2023/08/19 03:22:29;;;;;;;6.70;3.60;;;;;;;;;;10482501;28;21960;-76
2023/08/19 03:27:33;;;;;;;10.30;3.77;;;;;;;;;;10492390;28;20045;-76
2023/08/19 03:32:37;;;;;;;5.53;3.47;;;;;;;;;;10484993;28;20131;-76
2023/08/19 03:37:39;;;;;;;8.13;3.83;;;;;;;;;;10483334;28;20066;-76
2023/08/19 03:42:44;;;;;;;6.60;3.27;;;;;;;;;;10489116;28;20126;-78
2023/08/19 03:47:46;;;;;;;11.00;3.67;;;;;;;;;;10488127;28;20036;-77
2023/08/19 03:52:49;;;;;;;7.87;3.50;;;;;;;;;;10491036;28;20730;-77
2023/08/19 03:57:53;;;;;;;6.30;3.20;;;;;;;;;;10495164;28;20132;-78
2023/08/19 04:02:56;;;;;;;8.18;2.95;;;;;;;;;;10491343;28;20066;-77
2023/08/19 04:07:59;;;;;;;5.27;3.10;;;;;;;;;;10486618;28;20040;-77
2023/08/19 04:13:03;;;;;;;8.30;3.42;;;;;;;;;;10483979;28;20498;-77
2023/08/19 04:18:08;;;;;;;7.63;3.28;;;;;;;;;;10491515;28;20540;-78
2023/08/19 04:23:11;;;;;;;8.80;3.58;;;;;;;;;;10487536;28;20664;-77
2023/08/19 04:28:15;;;;;;;10.50;3.30;;;;;;;;;;10481933;28;20447;-77
2023/08/19 04:33:17;;;;;;;7.60;3.08;;;;;;;;;;10481046;28;20045;-77
2023/08/19 04:38:21;;;;;;;5.63;2.97;;;;;;;;;;10481089;28;20351;-77
2023/08/19 04:43:25;;;;;;;5.13;3.03;;;;;;;;;;10479986;28;20098;-77
2023/08/19 04:48:27;;;;;;;7.18;3.08;;;;;;;;;;10481071;28;20045;-78
2023/08/19 04:53:30;;;;;;;6.73;2.97;;;;;;;;;;10483248;28;20076;-76
2023/08/19 04:58:35;;;;;;;5.93;3.47;;;;;;;;;;10490229;28;20554;-76
2023/08/19 05:03:37;;;;;;;6.75;3.20;;;;;;;;;;10480956;28;20076;-76
2023/08/19 05:08:40;;;;;;;7.30;2.97;;;;;;;;;;10483038;28;20039;-76
2023/08/19 05:13:44;;;;;;;7.43;3.13;;;;;;;;;;10487166;28;20338;-75
2023/08/19 05:18:51;;;;;;;7.30;3.55;;;;;;;;;;10479694;28;20041;-77
2023/08/19 05:23:53;;;;;;;9.35;3.63;;;;;;;;;;10476023;28;20052;-76
2023/08/19 05:28:58;;;;;;;6.63;3.03;;;;;;;;;;10481907;28;20056;-75
2023/08/19 05:34:00;;;;;;;7.72;3.70;;;;;;;;;;10477871;28;20044;-76
2023/08/19 05:39:03;;;;;;;10.67;3.20;;;;;;;;;;10482850;28;20119;-76
2023/08/19 05:44:08;;;;;;;6.75;2.95;;;;;;;;;;10482355;28;20307;-75
2023/08/19 05:49:10;;;;;;;5.50;2.90;;;;;;;;;;10482331;28;20052;-75
2023/08/19 05:54:13;;;;;;;11.97;3.17;;;;;;;;;;10483226;28;20051;-76
2023/08/19 05:59:17;;;;;;;6.70;2.90;;;;;;;;;;10484051;28;20702;-76
2023/08/19 06:04:20;;;;;;;8.75;3.10;;;;;;;;;;10484186;28;20040;-76
2023/08/19 06:09:23;;;;;;;8.52;2.78;;;;;;;;;;10482858;28;20098;-76
2023/08/19 06:14:27;;;;;;;8.10;3.08;;;;;;;;;;10501295;28;20109;-75
2023/08/19 06:19:29;;;;;;;10.75;3.92;;;;;;;;;;10484782;28;20462;-75
2023/08/19 06:24:32;;;;;;;9.23;3.55;;;;;;;;;;10482116;28;20063;-76
2023/08/19 06:29:37;;;;;;;6.68;3.30;;;;;;;;;;10483350;28;20047;-75
2023/08/19 06:34:40;;;;;;;8.27;3.22;;;;;;;;;;10482531;28;20102;-75
2023/08/19 06:39:42;;;;;;;;;;;;;;;;;;10478503;28;20048;-75
2023/08/19 06:44:49;;;;;;;7.70;3.20;;;;;;;;;;10485186;28;19920;-75
2023/08/19 06:49:52;;;;;;;7.20;3.10;;;;;;;;;;10483050;28;20056;-74
2023/08/19 06:54:55;;;;;;;6.25;2.92;;;;;;;;;;10491701;28;20045;-74
2023/08/19 07:00:01;;;;;;;5.78;3.13;;;;;;;;;;10488929;28;20040;-76
2023/08/19 07:05:06;;;;;;;6.88;3.30;;;;;;;;;;10495668;28;20040;-74
2023/08/19 07:10:11;;;;;;;4.95;2.90;;;;;;;;;;10496386;28;20052;-75
2023/08/19 07:15:16;;;;;;;7.40;3.33;;;;;;;;;;10499181;28;20045;-75
2023/08/19 07:20:22;;;;;;;11.85;3.47;;;;;;;;;;10490308;28;20037;-75
2023/08/19 07:25:25;;;;;;;4.85;3.08;;;;;;;;;;10488343;28;20047;-75
2023/08/19 07:30:29;;;;;;;6.22;3.42;;;;;;;;;;10496906;28;20537;-74
2023/08/19 07:35:33;;;;;;;5.30;3.28;;;;;;;;;;10496570;28;20041;-76
2023/08/19 07:40:38;;;;;;;4.90;3.17;;;;;;;;;;10503812;28;20043;-75
2023/08/19 07:45:42;;;;;;;6.85;3.28;;;;;;;;;;10489720;28;20044;-76
2023/08/19 07:50:45;;;;;;;6.20;3.30;;;;;;;;;;10490278;28;20297;-75
2023/08/19 07:55:48;;;;;;;3.75;2.83;;;;;;;;;;10489849;28;20072;-75
2023/08/19 08:00:52;;;;;;;7.32;3.55;;;;;;;;;;10490496;28;20461;-74
2023/08/19 08:05:55;;;;;;;4.97;2.85;;;;;;;;;;10489821;28;20509;-75
2023/08/19 08:10:58;;;;;;;5.82;3.50;;;;;;;;;;10481442;28;20557;-77
2023/08/19 08:16:02;;;;;;;6.68;3.53;;;;;;;;;;10490089;28;20338;-77
2023/08/19 08:21:05;;;;;;;5.50;3.30;;;;;;;;;;10483252;28;20127;-77
2023/08/19 08:26:09;;;;;;;7.65;4.00;;;;;;;;;;10486431;28;20137;-77
2023/08/19 08:31:13;;;;;;;7.15;3.55;;;;;;;;;;10495250;28;20052;-77
2023/08/19 08:36:16;;;;;;;6.32;3.17;;;;;;;;;;10491207;28;20040;-77
2023/08/19 08:41:19;;;;;;;3.75;3.33;;;;;;;;;;10489549;28;20131;-77
2023/08/19 08:46:23;;;;;;;5.10;3.58;;;;;;;;;;10488441;28;20119;-78
2023/08/19 08:51:26;;;;;;;4.88;3.55;;;;;;;;;;10485418;28;20109;-79
2023/08/19 08:56:29;;;;;;;5.10;3.45;;;;;;;;;;10486837;28;20108;-78
2023/08/19 09:01:35;;;;;;;4.47;3.22;;;;;;;;;;10486730;28;20051;-77
2023/08/19 09:06:38;;;;;;;5.03;3.60;;;;;;;;;;10486485;28;20103;-75
2023/08/19 09:11:42;;;;;;;5.32;3.97;;;;;;;;;;10484390;28;20040;-78
2023/08/19 09:16:46;;;;;;;4.15;3.75;;;;;;;;;;10489213;28;20058;-76
2023/08/19 09:21:49;;;;;;;4.72;3.95;;;;;;;;;;10494141;28;20118;-77
2023/08/19 09:26:55;;;;;;;4.32;3.90;;;;;;;;;;10501869;28;20036;-77
2023/08/19 09:31:59;;;;;;;6.28;3.80;;;;;;;;;;10486591;28;20150;-77
2023/08/19 09:37:03;;;;;;;6.28;3.58;;;;;;;;;;10484948;28;20064;-78
2023/08/19 09:42:06;;;;;;;5.10;3.53;;;;;;;;;;10488376;28;20455;-77
2023/08/19 09:47:10;;;;;;;5.10;3.63;;;;;;;;;;10483004;28;20075;-77
2023/08/19 09:52:16;;;;;;;6.35;3.58;;;;;;;;;;10479101;28;20043;-77
2023/08/19 09:57:19;;;;;;;4.27;3.77;;;;;;;;;;10479823;28;20123;-78
2023/08/19 10:02:23;;;;;;;5.78;3.50;;;;;;;;;;10477173;28;20037;-77
2023/08/19 10:07:30;;;;;;;6.75;3.83;;;;;;;;;;10478587;28;20049;-77
2023/08/19 10:12:34;;;;;;;5.22;3.60;;;;;;;;;;10479893;28;20098;-77
2023/08/19 10:17:40;;;;;;;6.13;3.90;;;;;;;;;;10495862;28;20442;-77
2023/08/19 10:22:48;;;;;;;4.47;3.85;;;;;;;;;;10481432;28;20123;-76
2023/08/19 10:27:51;;;;;;;4.00;3.60;;;;;;;;;;10484309;28;20035;-77
2023/08/19 10:32:55;;;;;;;5.13;3.90;;;;;;;;;;10478610;28;20135;-77
2023/08/19 10:37:58;;;;;;;4.32;3.60;;;;;;;;;;10475731;28;20490;-77
2023/08/19 10:43:01;;;;;;;4.50;4.03;;;;;;;;;;10484816;28;20391;-78
2023/08/19 10:48:05;;;;;;;7.68;4.00;;;;;;;;;;10478537;28;20563;-77
2023/08/19 10:53:08;;;;;;;5.32;4.05;;;;;;;;;;10480019;28;20088;-77
2023/08/19 10:58:11;;;;;;;4.75;3.80;;;;;;;;;;10477957;28;20123;-77
2023/08/19 11:03:15;;;;;;;4.38;3.97;;;;;;;;;;10479056;28;20040;-77
2023/08/19 11:08:18;;;;;;;4.00;3.60;;;;;;;;;;10482713;28;20090;-80
2023/08/19 11:13:23;;;;;;;5.93;3.60;;;;;;;;;;10480791;28;20162;-76
2023/08/19 11:18:28;;;;;;;5.00;3.70;;;;;;;;;;10481015;28;20037;-77
2023/08/19 11:23:32;;;;;;;4.18;3.55;;;;;;;;;;10485544;28;20072;-77
2023/08/19 11:28:36;;;;;;;4.40;3.15;;;;;;;;;;10478259;28;20093;-78
2023/08/19 11:33:42;;;;;;;3.45;3.08;;;;;;;;;;10477649;28;20064;-77
2023/08/19 11:38:46;;;;;;;4.65;3.40;;;;;;;;;;10476819;28;20094;-77
2023/08/19 11:43:53;;;;;;;4.20;2.97;;;;;;;;;;10479246;28;20046;-77
2023/08/19 11:48:58;;;;;;;6.22;3.67;;;;;;;;;;10484831;28;20105;-77
2023/08/19 11:54:02;;;;;;;4.38;3.22;;;;;;;;;;10482720;28;20163;-78
2023/08/19 11:59:05;;;;;;;3.83;3.30;;;;;;;;;;10488360;28;20055;-75
2023/08/19 12:04:15;;;;;;;4.32;3.22;;;;;;;;;;10487873;28;20260;-76
2023/08/19 12:09:18;;;;;;;7.85;3.40;;;;;;;;;;10487783;28;20044;-77
2023/08/19 12:14:21;;;;;;;10.73;3.50;;;;;;;;;;10493092;28;20068;-78
2023/08/19 12:19:26;;;;;;;3.65;3.10;;;;;;;;;;10489612;28;20233;-78
2023/08/19 12:24:29;;;;;;;3.78;2.97;;;;;;;;;;10486548;28;20086;-78
2023/08/19 12:29:32;;;;;;;4.72;2.92;;;;;;;;;;10485395;28;20339;-77
2023/08/19 12:34:37;;;;;;;6.50;3.30;;;;;;;;;;10482267;28;20053;-77
2023/08/19 12:39:40;;;;;;;5.60;2.92;;;;;;;;;;10483259;28;20044;-78
2023/08/19 12:44:43;;;;;;;4.03;2.70;;;;;;;;;;10488286;28;20060;-76
2023/08/19 12:49:47;;;;;;;4.72;2.90;;;;;;;;;;10486482;28;20048;-78
2023/08/19 12:54:51;;;;;;;4.35;2.88;;;;;;;;;;10485341;28;20066;-78
2023/08/19 12:59:53;;;;;;;4.65;2.72;;;;;;;;;;10483564;28;20041;-77
2023/08/19 13:04:58;;;;;;;3.80;2.45;;;;;;;;;;10478787;28;20045;-76
2023/08/19 13:10:01;;;;;;;4.20;2.72;;;;;;;;;;10481453;28;20041;-77
2023/08/19 13:15:04;;;;;;;5.13;2.60;;;;;;;;;;10488329;28;20089;-77
2023/08/19 13:20:09;;;;;;;3.80;2.42;;;;;;;;;;10486383;28;20497;-77
2023/08/19 13:25:12;;;;;;;5.75;3.00;;;;;;;;;;10481352;28;20182;-77
2023/08/19 13:30:16;;;;;;;4.85;2.80;;;;;;;;;;10478093;28;20132;-77
2023/08/19 13:35:21;;;;;;;6.75;2.65;;;;;;;;;;10475820;28;20134;-77
2023/08/19 13:40:24;;;;;;;8.15;2.78;;;;;;;;;;10483932;28;20109;-77
2023/08/19 13:45:27;;;;;;;4.15;2.45;;;;;;;;;;10481511;28;20562;-77
2023/08/19 13:50:31;;;;;;;5.43;2.55;;;;;;;;;;10479325;28;20051;-77
2023/08/19 13:55:34;;;;;;;2.60;2.20;;;;;;;;;;10489888;28;20131;-77
2023/08/19 14:00:37;;;;;;;5.22;2.65;;;;;;;;;;10483550;28;20041;-77
2023/08/19 14:05:41;;;;;;;6.38;2.50;;;;;;;;;;10483580;28;20040;-76
2023/08/19 14:10:45;;;;;;;5.07;2.60;;;;;;;;;;10477908;28;20044;-77
2023/08/19 14:15:48;;;;;;;3.92;2.42;;;;;;;;;;10476666;28;20402;-77
2023/08/19 14:20:52;;;;;;;6.75;2.25;;;;;;;;;;10474093;28;20036;-77
2023/08/19 14:25:54;;;;;;;6.45;2.38;;;;;;;;;;10475757;28;20116;-77
2023/08/19 14:30:57;;;;;;;5.18;2.20;;;;;;;;;;10475274;28;20074;-77
2023/08/19 14:36:01;;;;;;;5.03;2.45;;;;;;;;;;10469841;28;20040;-78
2023/08/19 14:41:06;;;;;;;5.38;2.47;;;;;;;;;;10477568;28;20028;-78
2023/08/19 14:46:09;;;;;;;5.65;2.45;;;;;;;;;;10478243;28;20056;-77
2023/08/19 14:51:14;;;;;;;5.57;2.47;;;;;;;;;;10490422;28;20037;-77
2023/08/19 14:56:17;;;;;;;7.38;2.53;;;;;;;;;;10478279;28;20486;-77
2023/08/19 15:01:20;;;;;;;5.55;2.35;;;;;;;;;;10486454;28;20374;-77
2023/08/19 15:06:24;;;;;;;7.60;3.05;;;;;;;;;;10476104;28;20387;-76
2023/08/19 15:11:27;;;;;;;7.80;2.72;;;;;;;;;;10477797;28;20129;-78
2023/08/19 15:16:29;;;;;;;6.90;2.53;;;;;;;;;;10477536;28;20140;-78
2023/08/19 15:21:34;;;;;;;4.15;2.80;;;;;;;;;;10472190;28;20067;-77
2023/08/19 15:26:36;;;;;;;8.30;2.53;;;;;;;;;;10473946;28;20606;-78
2023/08/19 15:31:39;;;;;;;8.82;2.38;;;;;;;;;;10477375;28;20037;-77
2023/08/19 15:36:43;;;;;;;8.15;2.53;;;;;;;;;;10477594;28;20052;-76
2023/08/19 15:41:46;;;;;;;5.70;2.50;;;;;;;;;;10479138;28;20098;-77
2023/08/19 15:46:49;;;;;;;6.75;2.60;;;;;;;;;;10481889;28;20048;-76
2023/08/19 15:51:57;;;;;;;6.88;2.20;;;;;;;;;;10477509;28;20076;-76
2023/08/19 15:57:01;;;;;;;9.23;2.35;;;;;;;;;;10479951;28;20044;-76
2023/08/19 16:02:04;;;;;;;9.05;2.78;;;;;;;;;;10476477;28;20075;-76
2023/08/19 16:07:08;;;;;;;9.70;2.70;;;;;;;;;;10478454;28;20131;-77
2023/08/19 16:12:12;;;;;;;8.63;3.35;;;;;;;;;;10477784;28;20123;-76
2023/08/19 16:17:15;;;;;;;8.40;2.65;;;;;;;;;;10476791;28;20060;-77
2023/08/19 16:22:19;;;;;;;9.65;3.13;;;;;;;;;;10478710;28;20044;-76
2023/08/19 16:27:21;;;;;;;6.63;2.60;;;;;;;;;;10479185;28;20048;-76
2023/08/19 16:32:24;;;;;;;8.68;3.10;;;;;;;;;;10480135;28;20246;-77
2023/08/19 16:37:28;;;;;;;9.18;3.78;;;;;;;;;;10488180;28;20498;-77
2023/08/19 16:42:31;;;;;;;8.88;3.42;;;;;;;;;;10485666;28;20178;-77
2023/08/19 16:47:34;;;;;;;6.80;2.90;;;;;;;;;;10493584;28;20056;-77
2023/08/19 16:52:39;;;;;;;7.18;3.40;;;;;;;;;;10492327;28;20120;-77
2023/08/19 16:57:42;;;;;;;6.68;2.80;;;;;;;;;;10483718;28;20451;-77
2023/08/19 17:02:45;;;;;;;5.55;2.65;;;;;;;;;;10485842;28;20041;-77
2023/08/19 17:07:49;;;;;;;8.25;3.20;;;;;;;;;;10483158;28;20048;-77
2023/08/19 17:12:51;;;;;;;5.85;3.30;;;;;;;;;;10489274;28;20036;-77
2023/08/19 17:17:54;;;;;;;8.02;3.80;;;;;;;;;;10482804;28;20175;-76
2023/08/19 17:22:59;;;;;;;7.80;3.05;;;;;;;;;;10477821;28;20044;-76
2023/08/19 17:28:01;;;;;;;8.43;3.20;;;;;;;;;;10484650;28;20096;-77
2023/08/19 17:33:04;;;;;;;7.38;3.30;;;;;;;;;;10492590;28;20037;-76
2023/08/19 17:38:08;;;;;;;4.13;2.70;;;;;;;;;;10491099;28;20040;-77
2023/08/19 17:43:11;;;;;;;6.95;3.40;;;;;;;;;;10493447;28;20068;-76
2023/08/19 17:48:14;;;;;;;10.27;3.88;;;;;;;;;;10486834;28;20064;-77
2023/08/19 17:53:19;;;;;;;6.75;3.33;;;;;;;;;;10482596;28;20045;-77
2023/08/19 17:58:23;;;;;;;8.10;3.85;;;;;;;;;;10484752;28;20036;-76
2023/08/19 18:03:26;;;;;;;8.15;4.25;;;;;;;;;;10479752;28;20041;-76
2023/08/19 18:08:31;;;;;;;7.80;4.00;;;;;;;;;;10484821;28;20083;-77
2023/08/19 18:13:34;;;;;;;8.95;3.78;;;;;;;;;;10485747;28;20059;-76
2023/08/19 18:18:37;;;;;;;7.82;3.60;;;;;;;;;;10478956;28;20037;-76
2023/08/19 18:23:41;;;;;;;10.15;3.80;;;;;;;;;;10482808;28;20430;-79
2023/08/19 18:28:44;;;;;;;7.38;3.22;;;;;;;;;;10474541;28;20094;-76
2023/08/19 18:33:47;;;;;;;7.53;3.60;;;;;;;;;;10483089;28;20089;-77
2023/08/19 18:38:51;;;;;;;9.35;3.70;;;;;;;;;;10482474;28;20351;-76
2023/08/19 18:43:54;;;;;;;10.82;3.78;;;;;;;;;;10483435;28;20040;-76
2023/08/19 18:48:57;;;;;;;8.13;3.80;;;;;;;;;;10477381;28;20072;-76
2023/08/19 18:54:02;;;;;;;9.65;3.85;;;;;;;;;;10475963;28;20571;-76
2023/08/19 18:59:05;;;;;;;11.32;4.07;;;;;;;;;;10480298;28;20100;-76
2023/08/19 19:04:11;;;;;;;11.63;3.88;;;;;;;;;;10497674;28;20670;-76
2023/08/19 19:09:15;;;;;;;8.45;3.83;;;;;;;;;;10506512;28;20054;-76
2023/08/19 19:14:18;;;;;;;13.85;4.95;;;;;;;;;;10507429;28;20044;-76
2023/08/19 19:19:22;;;;;;;9.68;4.45;;;;;;;;;;10500746;28;20100;-75
2023/08/19 19:24:26;;;;;;;10.15;4.00;;;;;;;;;;10487337;28;20097;-76
2023/08/19 19:29:28;;;;;;;7.68;3.70;;;;;;;;;;10479375;28;20042;-75
2023/08/19 19:34:31;;;;;;;9.73;3.55;;;;;;;;;;10477938;28;20041;-76
2023/08/19 19:39:35;;;;;;;9.50;4.40;;;;;;;;;;10478090;28;20119;-77
2023/08/19 19:44:38;;;;;;;14.50;5.75;;;;;;;;;;10474969;28;20052;-76
2023/08/19 19:49:41;;;;;;;8.18;4.20;;;;;;;;;;10473785;28;20476;-77
2023/08/19 19:54:46;;;;;;;10.23;4.65;;;;;;;;;;10473722;28;20052;-76
2023/08/19 19:59:49;;;;;;;11.02;4.85;;;;;;;;;;10471362;28;20093;-76
2023/08/19 20:04:51;;;;;;;8.77;3.47;;;;;;;;;;10477388;28;20119;-76
2023/08/19 20:10:00;;;;;;;14.48;3.65;;;;;;;;;;10481800;28;20036;-76
2023/08/19 20:15:17;;;;;;;8.15;4.10;;;;;;;;;;10485471;28;20067;-76
2023/08/19 20:20:20;;;;;;;7.72;3.70;;;;;;;;;;10480483;28;20055;-76
2023/08/19 20:25:24;;;;;;;11.93;3.83;;;;;;;;;;10489037;28;20043;-76
2023/08/19 20:30:27;;;;;;;10.60;4.13;;;;;;;;;;10486017;28;20098;-75
2023/08/19 20:35:29;;;;;;;;;;;;;;;;;;10481898;28;20523;-75
2023/08/19 20:40:36;;;;;;;7.15;3.63;;;;;;;;;;10479420;28;19920;-76
2023/08/19 20:45:38;;;;;;;6.53;3.78;;;;;;;;;;10483917;28;20068;-76
2023/08/19 20:50:41;;;;;;;;;;;;;;;;;;10478550;28;20478;-76
2023/08/19 20:55:45;;;;;;;9.30;4.70;;;;;;;;;;10477530;28;19928;-78
2023/08/19 21:00:48;;;;;;;10.23;4.00;;;;;;;;;;10488653;28;20036;-77
2023/08/19 21:05:50;;;;;;;7.80;4.18;;;;;;;;;;10481738;28;20048;-78
2023/08/19 21:10:58;;;;;;;10.85;4.50;;;;;;;;;;10486799;28;20048;-78
2023/08/19 21:16:01;;;;;;;11.55;4.30;;;;;;;;;;10481044;28;20047;-78
2023/08/19 21:21:04;;;;;;;8.57;3.80;;;;;;;;;;10480097;28;20041;-77
2023/08/19 21:26:09;;;;;;;9.88;3.65;;;;;;;;;;10484684;28;20569;-78
2023/08/19 21:31:11;;;;;;;10.50;3.88;;;;;;;;;;10481558;28;20068;-77
2023/08/19 21:36:14;;;;;;;;;;;;;;;;;;10479063;28;20403;-75
2023/08/19 21:41:18;;;;;;;10.57;3.50;;;;;;;;;;10482606;28;19931;-77
2023/08/19 21:46:21;;;;;;;8.00;3.83;;;;;;;;;;10482461;28;20036;-77
2023/08/19 21:51:23;;;;;;;10.20;4.60;;;;;;;;;;10476373;28;20571;-79
2023/08/19 21:56:26;;;;;;;;;;;;;;;;;;10477903;28;20155;-78
2023/08/19 22:01:30;;;;;;;12.52;4.10;;;;;;;;;;10483432;28;19920;-78
2023/08/19 22:06:33;;;;;;;12.43;4.50;;;;;;;;;;10484112;28;20047;-78
2023/08/19 22:11:35;;;;;;;9.02;4.30;;;;;;;;;;10485486;28;20059;-78
2023/08/19 22:16:39;;;;;;;7.97;4.32;;;;;;;;;;10484806;28;20131;-78
2023/08/19 22:21:42;;;;;;;8.60;3.97;;;;;;;;;;10471656;28;20050;-79
2023/08/19 22:26:45;;;;;;;;;;;;;;;;;;10478798;28;20049;-78
2023/08/19 22:31:49;;;;;;;11.37;5.27;;;;;;;;;;10476334;28;20487;-79
2023/08/19 22:36:51;;;;;;;11.07;4.28;;;;;;;;;;10478336;28;20143;-79
2023/08/19 22:41:54;;;;;;;;;;;;;;;;;;10480792;28;20045;-78
2023/08/19 22:46:58;;;;;;;9.70;4.47;;;;;;;;;;10479585;28;19928;-78
2023/08/19 22:52:00;;;;;;;12.80;4.63;;;;;;;;;;10474049;28;20051;-77
2023/08/19 22:57:03;;;;;;;;;;;;;;;;;;10488875;28;20044;-78
2023/08/19 23:02:07;;;;;;;9.48;4.57;;;;;;;;;;10483291;28;19927;-78
2023/08/19 23:07:10;;;;;;;7.35;4.22;;;;;;;;;;10483473;28;20078;-80
2023/08/19 23:12:12;;;;;;;9.52;3.92;;;;;;;;;;10492520;28;20222;-81
2023/08/19 23:17:16;;;;;;;8.73;4.15;;;;;;;;;;10480222;28;20068;-81
2023/08/19 23:22:19;;;;;;;9.00;3.83;;;;;;;;;;10478056;28;20128;-81
2023/08/19 23:27:22;;;;;;;8.30;3.90;;;;;;;;;;10469552;28;20042;-81
2023/08/19 23:32:26;;;;;;;8.65;4.32;;;;;;;;;;10467932;28;20047;-81
2023/08/19 23:37:28;;;;;;;11.45;4.88;;;;;;;;;;10468343;28;20049;-81
2023/08/19 23:42:31;;;;;;;9.05;4.47;;;;;;;;;;10480593;28;20037;-80
2023/08/19 23:47:36;;;;;;;8.60;4.32;;;;;;;;;;10485288;28;20053;-80
2023/08/19 23:52:42;;;;;;;13.75;5.63;;;;;;;;;;10484968;28;20039;-81
2023/08/19 23:57:45;;;;;;;8.55;4.32;;;;;;;;;;10481782;28;20044;-80
